Littorina — DLMG — position and weather

sailwx.info

Track history (hours):
 
Tides and Currents Weather Stations Pressure Air Temp Water Temp Dewpoint Dewpoint Depression Visibility Wind Speed Wind Dir Waves Ship Positions

Oceanographic research ship Littorina (Germany)

Detailed information on ship capabilities available from University of Delaware's Ocean Information Center.

Last reported at 2015-Jan-24 07:08 UTC. Time now 2015-Jan-26 10:29 UTC.
Position N 53°11' E 008°34'.

Length 30 m; draft 3 m.

Type: Fishing. MMSI: 211214250.

Date/timePositionNaut miles runAvg speedWind from/ knotsBaromVisibWave heightAir tempDewpointWater temp
2015-Jan-24 07:08N 53°11' E 008°34'0 0.0
2015-Jan-24 06:32N 53°11' E 008°34'0 0.0
2015-Jan-24 05:32N 53°11' E 008°34'0 0.0
2015-Jan-24 04:32N 53°11' E 008°34'0 0.0
2015-Jan-24 03:32N 53°11' E 008°34'0 0.0
2015-Jan-24 02:29N 53°11' E 008°34'0 0.0
2015-Jan-24 01:32N 53°11' E 008°34'0 0.0
2015-Jan-24 00:20N 53°11' E 008°34'0 0.0
2015-Jan-23 23:26N 53°11' E 008°34'0 0.0
2015-Jan-23 22:32N 53°11' E 008°34'0 0.0
2015-Jan-23 21:32N 53°11' E 008°34'0 0.0
2015-Jan-23 20:32N 53°11' E 008°34'0 0.0
2015-Jan-23 19:17N 53°11' E 008°34'0 0.0
2015-Jan-23 18:32N 53°11' E 008°34'0 0.0
2015-Jan-23 17:32N 53°11' E 008°34'0 0.0
2015-Jan-23 16:32N 53°11' E 008°34'0 0.0
2015-Jan-23 15:29N 53°11' E 008°34'0 0.0
2015-Jan-23 11:14N 53°11' E 008°34'0 0.0
2015-Jan-23 10:26N 53°11' E 008°34'0 0.0
2015-Jan-23 09:26N 53°11' E 008°34'0 0.0
2015-Jan-23 08:17N 53°11' E 008°34'0 0.0
2015-Jan-23 07:32N 53°11' E 008°34'0 0.0
2015-Jan-23 06:32N 53°11' E 008°34'0 0.0
2015-Jan-23 05:08N 53°11' E 008°34'0 0.0
2015-Jan-23 04:20N 53°11' E 008°34'0 0.0
2015-Jan-23 03:26N 53°11' E 008°34'0 0.0
2015-Jan-23 02:20N 53°11' E 008°34'0 0.0
2015-Jan-23 01:32N 53°11' E 008°34'0 0.0
2015-Jan-23 00:32N 53°11' E 008°34'0 0.0
2015-Jan-22 23:32N 53°11' E 008°34'0 0.0
2015-Jan-22 22:20N 53°11' E 008°34'0 0.0
2015-Jan-22 21:32N 53°11' E 008°34'0 0.0
2015-Jan-22 19:32N 53°11' E 008°34'0 0.0
2015-Jan-22 16:32N 53°11' E 008°34'0 0.0
2015-Jan-22 13:32N 53°11' E 008°34'0 0.0
2015-Jan-22 11:17N 53°11' E 008°34'0 0.0
2015-Jan-22 10:23N 53°11' E 008°34'0 0.0
2015-Jan-22 09:23N 53°11' E 008°34'0 0.0
2015-Jan-22 08:17N 53°11' E 008°34'0 0.0
2015-Jan-22 05:20N 53°11' E 008°34'0 0.0
2015-Jan-22 04:26N 53°11' E 008°34'0 0.0
2015-Jan-22 03:29N 53°11' E 008°34'0 0.0
2015-Jan-22 02:32N 53°11' E 008°34'0 0.0
2015-Jan-22 01:32N 53°11' E 008°34'0 0.0
2015-Jan-22 00:16N 53°11' E 008°34'0 0.0
2015-Jan-21 23:23N 53°11' E 008°34'0 0.0
2015-Jan-21 22:47N 53°11' E 008°34'0 0.0
2015-Jan-21 22:44N 53°11' E 008°34'0 0.0
2015-Jan-21 22:29N 53°11' E 008°34'0 0.0
2015-Jan-21 21:16N 53°11' E 008°34'0 0.0
2015-Jan-21 20:31N 53°11' E 008°34'0 0.0
2015-Jan-21 19:32N 53°11' E 008°34'0 0.0
2015-Jan-21 18:32N 53°11' E 008°34'0 0.0
2015-Jan-21 17:20N 53°11' E 008°34'0 0.0
2015-Jan-21 16:29N 53°11' E 008°34'0 0.0
2015-Jan-21 15:31N 53°11' E 008°34'0 0.0
2015-Jan-21 14:31N 53°11' E 008°34'0 0.0
2015-Jan-21 13:31N 53°11' E 008°34'0 0.1
2015-Jan-21 06:29N 53°11' E 008°33'0 0.0
2015-Jan-21 05:32N 53°11' E 008°33'0 0.0
2015-Jan-21 02:11N 53°11' E 008°33'0 0.0
2015-Jan-21 01:14N 53°11' E 008°33'0 0.0
2015-Jan-21 00:32N 53°11' E 008°33'0 0.0
2015-Jan-20 11:16N 53°11' E 008°33'0 0.0
2015-Jan-20 07:10N 53°11' E 008°33'0 0.0
2015-Jan-20 04:10N 53°11' E 008°33'0 0.0
2015-Jan-19 21:28N 53°11' E 008°33'0 0.0
2015-Jan-19 20:22N 53°11' E 008°33'0 0.0
2015-Jan-19 11:16N 53°11' E 008°33'4 0.2
2015-Jan-18 09:28N 53°14' E 008°29'1011.3
2015-Jan-18 08:33N 53°25' E 008°30'1010.2
2015-Jan-18 07:33N 53°35' E 008°32'1312.3
2015-Jan-18 06:33N 53°43' E 008°16'1111.2
2015-Jan-18 05:33N 53°53' E 008°06'5 4.9
2015-Jan-18 04:32N 53°57' E 008°06'8 8.0
2015-Jan-18 03:31N 54°00' E 008°19'1111.7
2015-Jan-18 02:33N 53°58' E 008°38'6 6.4
2015-Jan-18 01:33N 53°52' E 008°43'0 0.0
2015-Jan-18 00:31N 53°52' E 008°43'0 0.0
2015-Jan-17 23:31N 53°52' E 008°43'0 0.0
2015-Jan-17 22:31N 53°52' E 008°43'0 0.0
2015-Jan-17 21:31N 53°52' E 008°43'0 0.0
2015-Jan-17 20:31N 53°52' E 008°43'0 0.0
2015-Jan-17 19:31N 53°52' E 008°43'0 0.0
2015-Jan-17 18:31N 53°52' E 008°43'0 0.0
2015-Jan-17 17:31N 53°52' E 008°43'0 0.0
2015-Jan-17 16:31N 53°52' E 008°43'0 0.3
2015-Jan-17 15:33N 53°52' E 008°43'8 7.6
2015-Jan-17 14:33N 53°51' E 008°55'8 8.4
2015-Jan-17 13:33N 53°54' E 009°09'8 7.9
2015-Jan-17 12:33N 53°60' E 009°17'18 8.2
2015-Jan-17 10:23N 54°14' E 009°36'7 7.5
2015-Jan-17 09:29N 54°19' E 009°43'7 7.6
2015-Jan-17 08:33N 54°21' E 009°55'8 7.7
2015-Jan-17 07:33N 54°22' E 010°08'1 1.4
2015-Jan-17 06:33N 54°22' E 010°10'2 2.0
2015-Jan-17 05:33N 54°20' E 010°09'0 0.0
2015-Jan-17 04:33N 54°20' E 010°09'0 0.0
2015-Jan-17 03:33N 54°20' E 010°09'0 0.0
2015-Jan-17 02:32N 54°20' E 010°09'0 0.0
2015-Jan-17 01:33N 54°20' E 010°09'0 0.0
2015-Jan-17 00:33N 54°20' E 010°09'0 0.0
2015-Jan-16 23:33N 54°20' E 010°09'0 0.0
2015-Jan-16 22:33N 54°20' E 010°09'0 0.0
2015-Jan-16 21:33N 54°20' E 010°09'0 0.0
2015-Jan-16 20:32N 54°20' E 010°09'0 0.0
2015-Jan-16 19:32N 54°20' E 010°09'0 0.0
2015-Jan-16 18:33N 54°20' E 010°09'0 0.0
2015-Jan-16 17:33N 54°20' E 010°09'0 0.0
2015-Jan-16 16:33N 54°20' E 010°09'0 0.0
2015-Jan-16 15:33N 54°20' E 010°09'0 0.0
2015-Jan-16 14:30N 54°20' E 010°09'0 0.0
2015-Jan-16 13:33N 54°20' E 010°09'0 0.0
2015-Jan-16 12:33N 54°20' E 010°09'0 0.0
2015-Jan-16 11:32N 54°20' E 010°09'0 0.0
2015-Jan-16 10:32N 54°20' E 010°09'0 0.0
2015-Jan-16 09:32N 54°20' E 010°09'0 0.0
2015-Jan-16 08:33N 54°20' E 010°09'0 0.0
2015-Jan-16 07:33N 54°20' E 010°09'0 0.0
2015-Jan-16 06:32N 54°20' E 010°09'0 0.0
2015-Jan-16 05:33N 54°20' E 010°09'0 0.0
2015-Jan-16 04:32N 54°20' E 010°09'0 0.0
2015-Jan-16 03:32N 54°20' E 010°09'0 0.0
2015-Jan-16 02:32N 54°20' E 010°09'0 0.0
2015-Jan-16 01:32N 54°20' E 010°09'0 0.0
2015-Jan-16 00:32N 54°20' E 010°09'0 0.0
2015-Jan-15 22:32N 54°20' E 010°09'0 0.0
2015-Jan-15 21:32N 54°20' E 010°09'0 0.0
2015-Jan-15 20:32N 54°20' E 010°09'0 0.0
2015-Jan-15 19:29N 54°20' E 010°09'0 0.0
2015-Jan-15 18:32N 54°20' E 010°09'0 0.0
2015-Jan-15 17:32N 54°20' E 010°09'0 0.0
2015-Jan-15 16:32N 54°20' E 010°09'0 0.0
2015-Jan-15 15:32N 54°20' E 010°09'0 0.0
2015-Jan-15 14:32N 54°20' E 010°09'0 0.0
2015-Jan-15 13:32N 54°20' E 010°09'0 0.0
2015-Jan-15 12:32N 54°20' E 010°09'0 0.0
2015-Jan-15 11:32N 54°20' E 010°09'0 0.0
2015-Jan-15 10:32N 54°20' E 010°09'0 0.0
2015-Jan-15 09:32N 54°20' E 010°09'0 0.0
2015-Jan-15 08:32N 54°20' E 010°09'0 0.0
2015-Jan-15 07:32N 54°20' E 010°09'0 0.0
2015-Jan-15 06:32N 54°20' E 010°09'0 0.0
2015-Jan-15 05:32N 54°20' E 010°09'0 0.0
2015-Jan-15 04:32N 54°20' E 010°09'0 0.0
2015-Jan-15 03:32N 54°20' E 010°09'0 0.0
2015-Jan-15 02:29N 54°20' E 010°09'0 0.0
2015-Jan-15 01:32N 54°20' E 010°09'0 0.0
2015-Jan-15 00:32N 54°20' E 010°09'0 0.0
2015-Jan-14 21:26N 54°20' E 010°09'0 0.0
2015-Jan-14 20:17N 54°20' E 010°09'0 0.0
2015-Jan-14 19:26N 54°20' E 010°09'0 0.0
2015-Jan-14 18:32N 54°20' E 010°09'0 0.0
2015-Jan-14 17:32N 54°20' E 010°09'0 0.0
2015-Jan-14 15:14N 54°20' E 010°09'0 0.0
2015-Jan-14 14:32N 54°20' E 010°09'0 0.0
2015-Jan-14 13:32N 54°20' E 010°09'0 0.0
2015-Jan-14 12:32N 54°20' E 010°09'0 0.0
2015-Jan-14 11:32N 54°20' E 010°09'0 0.0
2015-Jan-14 10:32N 54°20' E 010°09'0 0.0
2015-Jan-14 09:32N 54°20' E 010°09'0 0.0
2015-Jan-14 08:32N 54°20' E 010°09'0 0.0
2015-Jan-14 07:32N 54°20' E 010°09'  
Track history (hours):
 
Tides and Currents Weather Stations Pressure Air Temp Water Temp Dewpoint Dewpoint Depression Visibility Wind Speed Wind Dir Waves Ship Positions

Oceanographic research ship Littorina (Germany)

Detailed information on ship capabilities available from University of Delaware's Ocean Information Center.

Last reported at 2015-Jan-24 07:08 UTC. Time now 2015-Jan-26 10:29 UTC.
Position N 53°11' E 008°34'.

Length 30 m; draft 3 m.

Type: Fishing. MMSI: 211214250.

Date/timePositionNaut miles runAvg speedWind from/ knotsBaromVisibWave heightAir tempDewpointWater temp
2015-Jan-24 07:08N 53°11' E 008°34'0 0.0
2015-Jan-24 06:32N 53°11' E 008°34'0 0.0
2015-Jan-24 05:32N 53°11' E 008°34'0 0.0
2015-Jan-24 04:32N 53°11' E 008°34'0 0.0
2015-Jan-24 03:32N 53°11' E 008°34'0 0.0
2015-Jan-24 02:29N 53°11' E 008°34'0 0.0
2015-Jan-24 01:32N 53°11' E 008°34'0 0.0
2015-Jan-24 00:20N 53°11' E 008°34'0 0.0
2015-Jan-23 23:26N 53°11' E 008°34'0 0.0
2015-Jan-23 22:32N 53°11' E 008°34'0 0.0
2015-Jan-23 21:32N 53°11' E 008°34'0 0.0
2015-Jan-23 20:32N 53°11' E 008°34'0 0.0
2015-Jan-23 19:17N 53°11' E 008°34'0 0.0
2015-Jan-23 18:32N 53°11' E 008°34'0 0.0
2015-Jan-23 17:32N 53°11' E 008°34'0 0.0
2015-Jan-23 16:32N 53°11' E 008°34'0 0.0
2015-Jan-23 15:29N 53°11' E 008°34'0 0.0
2015-Jan-23 11:14N 53°11' E 008°34'0 0.0
2015-Jan-23 10:26N 53°11' E 008°34'0 0.0
2015-Jan-23 09:26N 53°11' E 008°34'0 0.0
2015-Jan-23 08:17N 53°11' E 008°34'0 0.0
2015-Jan-23 07:32N 53°11' E 008°34'0 0.0
2015-Jan-23 06:32N 53°11' E 008°34'0 0.0
2015-Jan-23 05:08N 53°11' E 008°34'0 0.0
2015-Jan-23 04:20N 53°11' E 008°34'0 0.0
2015-Jan-23 03:26N 53°11' E 008°34'0 0.0
2015-Jan-23 02:20N 53°11' E 008°34'0 0.0
2015-Jan-23 01:32N 53°11' E 008°34'0 0.0
2015-Jan-23 00:32N 53°11' E 008°34'0 0.0
2015-Jan-22 23:32N 53°11' E 008°34'0 0.0
2015-Jan-22 22:20N 53°11' E 008°34'0 0.0
2015-Jan-22 21:32N 53°11' E 008°34'0 0.0
2015-Jan-22 19:32N 53°11' E 008°34'0 0.0
2015-Jan-22 16:32N 53°11' E 008°34'0 0.0
2015-Jan-22 13:32N 53°11' E 008°34'0 0.0
2015-Jan-22 11:17N 53°11' E 008°34'0 0.0
2015-Jan-22 10:23N 53°11' E 008°34'0 0.0
2015-Jan-22 09:23N 53°11' E 008°34'0 0.0
2015-Jan-22 08:17N 53°11' E 008°34'0 0.0
2015-Jan-22 05:20N 53°11' E 008°34'0 0.0
2015-Jan-22 04:26N 53°11' E 008°34'0 0.0
2015-Jan-22 03:29N 53°11' E 008°34'0 0.0
2015-Jan-22 02:32N 53°11' E 008°34'0 0.0
2015-Jan-22 01:32N 53°11' E 008°34'0 0.0
2015-Jan-22 00:16N 53°11' E 008°34'0 0.0
2015-Jan-21 23:23N 53°11' E 008°34'0 0.0
2015-Jan-21 22:47N 53°11' E 008°34'0 0.0
2015-Jan-21 22:44N 53°11' E 008°34'0 0.0
2015-Jan-21 22:29N 53°11' E 008°34'0 0.0
2015-Jan-21 21:16N 53°11' E 008°34'0 0.0
2015-Jan-21 20:31N 53°11' E 008°34'0 0.0
2015-Jan-21 19:32N 53°11' E 008°34'0 0.0
2015-Jan-21 18:32N 53°11' E 008°34'0 0.0
2015-Jan-21 17:20N 53°11' E 008°34'0 0.0
2015-Jan-21 16:29N 53°11' E 008°34'0 0.0
2015-Jan-21 15:31N 53°11' E 008°34'0 0.0
2015-Jan-21 14:31N 53°11' E 008°34'0 0.0
2015-Jan-21 13:31N 53°11' E 008°34'0 0.1
2015-Jan-21 06:29N 53°11' E 008°33'0 0.0
2015-Jan-21 05:32N 53°11' E 008°33'0 0.0
2015-Jan-21 02:11N 53°11' E 008°33'0 0.0
2015-Jan-21 01:14N 53°11' E 008°33'0 0.0
2015-Jan-21 00:32N 53°11' E 008°33'0 0.0
2015-Jan-20 11:16N 53°11' E 008°33'0 0.0
2015-Jan-20 07:10N 53°11' E 008°33'0 0.0
2015-Jan-20 04:10N 53°11' E 008°33'0 0.0
2015-Jan-19 21:28N 53°11' E 008°33'0 0.0
2015-Jan-19 20:22N 53°11' E 008°33'0 0.0
2015-Jan-19 11:16N 53°11' E 008°33'4 0.2
2015-Jan-18 09:28N 53°14' E 008°29'1011.3
2015-Jan-18 08:33N 53°25' E 008°30'1010.2
2015-Jan-18 07:33N 53°35' E 008°32'1312.3
2015-Jan-18 06:33N 53°43' E 008°16'1111.2
2015-Jan-18 05:33N 53°53' E 008°06'5 4.9
2015-Jan-18 04:32N 53°57' E 008°06'8 8.0
2015-Jan-18 03:31N 54°00' E 008°19'1111.7
2015-Jan-18 02:33N 53°58' E 008°38'6 6.4
2015-Jan-18 01:33N 53°52' E 008°43'0 0.0
2015-Jan-18 00:31N 53°52' E 008°43'0 0.0
2015-Jan-17 23:31N 53°52' E 008°43'0 0.0
2015-Jan-17 22:31N 53°52' E 008°43'0 0.0
2015-Jan-17 21:31N 53°52' E 008°43'0 0.0
2015-Jan-17 20:31N 53°52' E 008°43'0 0.0
2015-Jan-17 19:31N 53°52' E 008°43'0 0.0
2015-Jan-17 18:31N 53°52' E 008°43'0 0.0
2015-Jan-17 17:31N 53°52' E 008°43'0 0.0
2015-Jan-17 16:31N 53°52' E 008°43'0 0.3
2015-Jan-17 15:33N 53°52' E 008°43'8 7.6
2015-Jan-17 14:33N 53°51' E 008°55'8 8.4
2015-Jan-17 13:33N 53°54' E 009°09'8 7.9
2015-Jan-17 12:33N 53°60' E 009°17'18 8.2
2015-Jan-17 10:23N 54°14' E 009°36'7 7.5
2015-Jan-17 09:29N 54°19' E 009°43'7 7.6
2015-Jan-17 08:33N 54°21' E 009°55'8 7.7
2015-Jan-17 07:33N 54°22' E 010°08'1 1.4
2015-Jan-17 06:33N 54°22' E 010°10'2 2.0
2015-Jan-17 05:33N 54°20' E 010°09'0 0.0
2015-Jan-17 04:33N 54°20' E 010°09'0 0.0
2015-Jan-17 03:33N 54°20' E 010°09'0 0.0
2015-Jan-17 02:32N 54°20' E 010°09'0 0.0
2015-Jan-17 01:33N 54°20' E 010°09'0 0.0
2015-Jan-17 00:33N 54°20' E 010°09'0 0.0
2015-Jan-16 23:33N 54°20' E 010°09'0 0.0
2015-Jan-16 22:33N 54°20' E 010°09'0 0.0
2015-Jan-16 21:33N 54°20' E 010°09'0 0.0
2015-Jan-16 20:32N 54°20' E 010°09'0 0.0
2015-Jan-16 19:32N 54°20' E 010°09'0 0.0
2015-Jan-16 18:33N 54°20' E 010°09'0 0.0
2015-Jan-16 17:33N 54°20' E 010°09'0 0.0
2015-Jan-16 16:33N 54°20' E 010°09'0 0.0
2015-Jan-16 15:33N 54°20' E 010°09'0 0.0
2015-Jan-16 14:30N 54°20' E 010°09'0 0.0
2015-Jan-16 13:33N 54°20' E 010°09'0 0.0
2015-Jan-16 12:33N 54°20' E 010°09'0 0.0
2015-Jan-16 11:32N 54°20' E 010°09'0 0.0
2015-Jan-16 10:32N 54°20' E 010°09'0 0.0
2015-Jan-16 09:32N 54°20' E 010°09'0 0.0
2015-Jan-16 08:33N 54°20' E 010°09'0 0.0
2015-Jan-16 07:33N 54°20' E 010°09'0 0.0
2015-Jan-16 06:32N 54°20' E 010°09'0 0.0
2015-Jan-16 05:33N 54°20' E 010°09'0 0.0
2015-Jan-16 04:32N 54°20' E 010°09'0 0.0
2015-Jan-16 03:32N 54°20' E 010°09'0 0.0
2015-Jan-16 02:32N 54°20' E 010°09'0 0.0
2015-Jan-16 01:32N 54°20' E 010°09'0 0.0
2015-Jan-16 00:32N 54°20' E 010°09'0 0.0
2015-Jan-15 22:32N 54°20' E 010°09'0 0.0
2015-Jan-15 21:32N 54°20' E 010°09'0 0.0
2015-Jan-15 20:32N 54°20' E 010°09'0 0.0
2015-Jan-15 19:29N 54°20' E 010°09'0 0.0
2015-Jan-15 18:32N 54°20' E 010°09'0 0.0
2015-Jan-15 17:32N 54°20' E 010°09'0 0.0
2015-Jan-15 16:32N 54°20' E 010°09'0 0.0
2015-Jan-15 15:32N 54°20' E 010°09'0 0.0
2015-Jan-15 14:32N 54°20' E 010°09'0 0.0
2015-Jan-15 13:32N 54°20' E 010°09'0 0.0
2015-Jan-15 12:32N 54°20' E 010°09'0 0.0
2015-Jan-15 11:32N 54°20' E 010°09'0 0.0
2015-Jan-15 10:32N 54°20' E 010°09'0 0.0
2015-Jan-15 09:32N 54°20' E 010°09'0 0.0
2015-Jan-15 08:32N 54°20' E 010°09'0 0.0
2015-Jan-15 07:32N 54°20' E 010°09'0 0.0
2015-Jan-15 06:32N 54°20' E 010°09'0 0.0
2015-Jan-15 05:32N 54°20' E 010°09'0 0.0
2015-Jan-15 04:32N 54°20' E 010°09'0 0.0
2015-Jan-15 03:32N 54°20' E 010°09'0 0.0
2015-Jan-15 02:29N 54°20' E 010°09'0 0.0
2015-Jan-15 01:32N 54°20' E 010°09'0 0.0
2015-Jan-15 00:32N 54°20' E 010°09'0 0.0
2015-Jan-14 21:26N 54°20' E 010°09'0 0.0
2015-Jan-14 20:17N 54°20' E 010°09'0 0.0
2015-Jan-14 19:26N 54°20' E 010°09'0 0.0
2015-Jan-14 18:32N 54°20' E 010°09'0 0.0
2015-Jan-14 17:32N 54°20' E 010°09'0 0.0
2015-Jan-14 15:14N 54°20' E 010°09'0 0.0
2015-Jan-14 14:32N 54°20' E 010°09'0 0.0
2015-Jan-14 13:32N 54°20' E 010°09'0 0.0
2015-Jan-14 12:32N 54°20' E 010°09'0 0.0
2015-Jan-14 11:32N 54°20' E 010°09'0 0.0
2015-Jan-14 10:32N 54°20' E 010°09'0 0.0
2015-Jan-14 09:32N 54°20' E 010°09'0 0.0
2015-Jan-14 08:32N 54°20' E 010°09'0 0.0
2015-Jan-14 07:32N 54°20' E 010°09'  

Dump ship's entire track history